DAOL

Tafaraoui Airport

Algeria
METAR DAOL 190500Z 00000KT 0050 FG VV/// 05/05 Q1024
Observed Flight Rules
Dec-19 @ 05:00 UTC (32 minutes ago) Instrument Flight Rules
Visibility Clouds Conditions
48 meters
  • Vertical visibility
  • Fog
Temperatures Readings
Current 5°C / 41°F
Dewpoint 5°C / 41°F
Humidity 100%
Altimeter 30.24" Hg
Pressure 1024 hPa
Elevation 112
METAR DAOL 190500Z 00000KT 0050 FG VV/// 05/05 Q1024
Observed Flight Rules
Dec-19 @ 05:00 UTC
(32 minutes ago)
LIFR
Clouds
  • Vertical visibility
Conditions
  • Fog
Temperature Dewpoint
5°C / 41°F 5°C / 41°F
Humidity Altimeter Pressure
100% 30.24" Hg 1024 hPa